Time;durP1;ratioP1;P1;durP2;ratioP2;P2;SDS_P1;SDS_P2;PMS_P1;PMS_P2;Temp;Humidity;BMP_temperature;BMP_pressure;BME280_temperature;BME280_humidity;BME280_pressure;Samples;Min_cycle;Max_cycle;Signal;HPM_P1;HPM_P2
2023/08/22 00:02:09;;;;;;;3.72;3.30;;;;;;;22.51;100.00;98125.59;18232571;32;20050;-49
2023/08/22 00:12:12;;;;;;;7.20;3.50;;;;;;;22.40;100.00;98130.72;18233144;32;20113;-50
2023/08/22 00:22:15;;;;;;;9.25;3.90;;;;;;;22.28;100.00;98122.34;18218184;32;20072;-48
2023/08/22 00:32:18;;;;;;;4.68;3.72;;;;;;;22.16;100.00;98123.12;18232460;32;20107;-50
2023/08/22 00:42:21;;;;;;;;;;;;;;;22.06;100.00;98120.75;18230840;32;20078;-52
2023/08/22 00:52:24;;;;;;;5.55;3.47;;;;;;;21.94;100.00;98119.53;18231678;32;19954;-50
2023/08/22 01:02:27;;;;;;;3.95;3.50;;;;;;;21.85;100.00;98110.53;18230585;32;20046;-50
2023/08/22 01:12:45;;;;;;;5.97;3.73;;;;;;;21.76;100.00;98120.78;18230743;32;20130;-47
2023/08/22 01:22:48;;;;;;;4.82;3.42;;;;;;;21.66;100.00;98111.75;18230306;32;20050;-50
2023/08/22 01:32:55;;;;;;;3.70;3.40;;;;;;;21.58;100.00;98111.81;18229655;32;20059;-48
2023/08/22 01:42:59;;;;;;;7.30;3.72;;;;;;;21.48;100.00;98110.22;18229475;32;20046;-49
2023/08/22 01:53:02;;;;;;;5.00;3.22;;;;;;;21.36;100.00;98101.88;18236839;32;20502;-50
2023/08/22 02:03:05;;;;;;;5.32;3.62;;;;;;;21.30;100.00;98104.00;18238725;32;20370;-48
2023/08/22 02:13:08;;;;;;;5.07;3.33;;;;;;;21.20;100.00;98096.09;18238616;32;20062;-47
2023/08/22 02:23:11;;;;;;;6.62;3.97;;;;;;;21.11;100.00;98093.41;18237009;32;20442;-48
2023/08/22 02:33:14;;;;;;;4.35;3.35;;;;;;;21.03;100.00;98094.25;18237252;32;20363;-48
2023/08/22 02:43:17;;;;;;;5.40;3.40;;;;;;;20.98;100.00;98089.72;18237086;32;20065;-48
2023/08/22 02:53:19;;;;;;;4.83;3.53;;;;;;;20.89;100.00;98083.44;18236769;32;20374;-51
2023/08/22 03:03:22;;;;;;;5.27;3.90;;;;;;;20.81;100.00;98082.34;18236329;32;20039;-48
2023/08/22 03:13:25;;;;;;;5.50;3.58;;;;;;;20.74;100.00;98087.53;18235829;32;20411;-49
2023/08/22 03:23:27;;;;;;;;;;;;;;;20.67;100.00;98078.97;18222776;32;20088;-49
2023/08/22 03:33:32;;;;;;;9.70;3.65;;;;;;;20.62;100.00;98077.16;18235058;32;20325;-48
2023/08/22 03:43:35;;;;;;;4.97;3.40;;;;;;;20.52;100.00;98081.06;18234462;32;20055;-48
2023/08/22 03:53:38;;;;;;;4.97;3.40;;;;;;;20.45;100.00;98080.75;18234059;32;20081;-49
2023/08/22 04:03:41;;;;;;;7.40;3.33;;;;;;;20.36;100.00;98082.72;18234068;32;20069;-50
2023/08/22 04:13:44;;;;;;;4.47;3.40;;;;;;;20.30;100.00;98082.88;18231850;32;20123;-50
2023/08/22 04:23:46;;;;;;;;;;;;;;;20.26;100.00;98086.59;18232873;32;20411;-49
2023/08/22 04:33:49;;;;;;;4.03;2.95;;;;;;;20.17;100.00;98094.81;18231125;32;19982;-47
2023/08/22 04:43:53;;;;;;;4.10;3.40;;;;;;;20.08;100.00;98097.56;18232004;32;20054;-49
2023/08/22 04:53:56;;;;;;;4.32;3.47;;;;;;;20.03;100.00;98100.47;18231448;32;20054;-49
2023/08/22 05:03:59;;;;;;;4.22;2.97;;;;;;;20.02;100.00;98103.53;18231711;32;20050;-47
2023/08/22 05:14:02;;;;;;;3.65;3.08;;;;;;;20.00;100.00;98111.28;18230938;32;20059;-49
2023/08/22 05:24:07;;;;;;;4.12;3.08;;;;;;;20.02;100.00;98120.00;18233055;32;20082;-48
2023/08/22 05:34:11;;;;;;;4.00;3.15;;;;;;;20.10;100.00;98111.78;18239968;32;20055;-48
2023/08/22 05:44:14;;;;;;;5.28;3.70;;;;;;;20.27;100.00;98121.97;18238644;32;20094;-48
2023/08/22 05:54:17;;;;;;;4.87;3.62;;;;;;;20.47;100.00;98130.66;18239270;32;20092;-49
2023/08/22 06:04:20;;;;;;;4.45;3.42;;;;;;;20.70;100.00;98144.28;18237343;32;20063;-47
2023/08/22 06:14:23;;;;;;;;;;;;;;;20.94;100.00;98144.56;18238830;32;20094;-49
2023/08/22 06:24:26;;;;;;;4.80;3.72;;;;;;;21.23;100.00;98145.75;18236937;32;19961;-49
2023/08/22 06:34:30;;;;;;;;;;;;;;;21.53;100.00;98154.09;18236194;32;20062;-47
2023/08/22 06:44:33;;;;;;;2.93;2.63;;;;;;;21.88;100.00;98159.41;18237741;32;20247;-48
2023/08/22 06:54:36;;;;;;;2.67;2.42;;;;;;;22.19;100.00;98155.50;18236803;32;20150;-47
2023/08/22 07:04:39;;;;;;;2.65;2.25;;;;;;;22.61;100.00;98162.94;18236009;32;20405;-50
2023/08/22 07:14:42;;;;;;;4.10;3.37;;;;;;;23.01;100.00;98154.94;18235321;32;20064;-48
2023/08/22 07:24:45;;;;;;;4.93;4.40;;;;;;;23.38;100.00;98151.50;18233837;32;20050;-51
2023/08/22 07:34:48;;;;;;;7.95;5.10;;;;;;;23.67;100.00;98164.28;18234906;32;20583;-48
2023/08/22 07:44:52;;;;;;;5.75;5.15;;;;;;;23.98;100.00;98157.37;18233749;32;20062;-51
2023/08/22 07:54:54;;;;;;;6.70;5.40;;;;;;;24.40;100.00;98170.06;18234047;32;20096;-50
2023/08/22 08:04:58;;;;;;;5.85;5.25;;;;;;;24.80;100.00;98163.72;18233424;32;20051;-50
2023/08/22 08:15:02;;;;;;;7.65;5.65;;;;;;;25.22;100.00;98173.56;18233050;32;20073;-52
2023/08/22 08:25:06;;;;;;;9.23;7.12;;;;;;;25.64;100.00;98186.91;18232600;32;20055;-50
2023/08/22 08:35:10;;;;;;;11.52;6.70;;;;;;;26.01;100.00;98186.59;18231029;32;20063;-50
2023/08/22 08:45:16;;;;;;;7.97;6.45;;;;;;;26.38;100.00;98183.50;18231687;32;20051;-50
2023/08/22 08:55:19;;;;;;;10.63;6.97;;;;;;;26.69;100.00;98173.44;18232530;32;20063;-50
2023/08/22 09:05:24;;;;;;;8.43;6.70;;;;;;;26.99;100.00;98167.31;18241747;32;20047;-51
2023/08/22 09:15:29;;;;;;;8.73;7.15;;;;;;;27.34;100.00;98171.94;18241068;32;20143;-49
2023/08/22 09:25:42;;;;;;;9.77;6.50;;;;;;;27.65;100.00;98170.06;18240791;32;20050;-49
2023/08/22 09:35:55;;;;;;;7.55;6.72;;;;;;;28.00;100.00;98169.06;18240069;32;20443;-49
2023/08/22 09:46:02;;;;;;;7.82;7.05;;;;;;;28.30;100.00;98159.16;18226591;32;20445;-49
2023/08/22 09:56:09;;;;;;;8.20;7.32;;;;;;;28.56;100.00;98156.31;18239880;32;20107;-50
2023/08/22 10:06:15;;;;;;;7.30;6.60;;;;;;;28.96;100.00;98156.81;18238642;32;20058;-52
2023/08/22 10:16:20;;;;;;;8.40;6.95;;;;;;;29.30;100.00;98147.59;18238412;32;20350;-48
2023/08/22 10:26:28;;;;;;;8.68;7.70;;;;;;;29.60;96.66;98144.69;18237590;32;20069;-50
2023/08/22 10:37:01;;;;;;;8.18;7.25;;;;;;;29.86;98.86;98134.53;18236568;32;20058;-49
2023/08/22 10:47:18;;;;;;;9.25;7.95;;;;;;;30.20;92.04;98126.00;18237603;32;20066;-48
2023/08/22 10:57:27;;;;;;;9.20;7.20;;;;;;;30.48;86.02;98124.53;18223506;32;20394;-50
2023/08/22 11:07:35;;;;;;;8.23;6.43;;;;;;;30.72;85.94;98117.47;18234998;32;20086;-50
2023/08/22 11:17:40;;;;;;;7.28;5.90;;;;;;;31.13;80.21;98102.41;18235672;32;20063;-49
2023/08/22 11:27:49;;;;;;;7.03;6.20;;;;;;;31.52;80.90;98099.62;18234895;32;20047;-52
2023/08/22 11:37:53;;;;;;;7.00;6.30;;;;;;;31.90;73.01;98104.78;18235148;32;20059;-51
2023/08/22 11:47:57;;;;;;;6.37;5.10;;;;;;;32.17;72.17;98093.16;18234435;32;20054;-52
2023/08/22 11:58:05;;;;;;;5.78;4.65;;;;;;;32.14;62.25;98077.12;18233915;32;20055;-52
2023/08/22 12:08:11;;;;;;;7.37;5.50;;;;;;;32.52;64.09;98072.63;18233666;32;20051;-53
2023/08/22 12:18:19;;;;;;;7.28;5.95;;;;;;;32.76;63.37;98061.72;18233157;32;20087;-52
2023/08/22 12:28:24;;;;;;;5.47;4.97;;;;;;;33.31;60.62;98064.94;18231048;32;20081;-50
2023/08/22 12:38:28;;;;;;;5.18;4.68;;;;;;;33.70;54.52;98064.56;18230269;32;20054;-53
2023/08/22 12:48:36;;;;;;;6.30;4.30;;;;;;;34.07;53.23;98063.00;18230861;32;20086;-50
2023/08/22 12:58:40;;;;;;;5.53;4.53;;;;;;;34.26;49.42;98055.13;18231310;32;20063;-53
2023/08/22 13:08:44;;;;;;;5.53;4.55;;;;;;;34.80;50.80;98057.25;18230944;32;20050;-53
2023/08/22 13:19:02;;;;;;;6.45;4.50;;;;;;;34.99;45.27;98041.72;18230415;32;20054;-52
2023/08/22 13:29:05;;;;;;;7.60;4.32;;;;;;;35.51;46.30;98039.66;18228599;32;20103;-51
2023/08/22 13:39:08;;;;;;;5.68;5.00;;;;;;;36.04;46.72;98029.41;18228434;32;20054;-51
2023/08/22 13:49:12;;;;;;;5.45;4.93;;;;;;;36.21;44.05;98018.22;18237573;32;20050;-52
2023/08/22 13:59:16;;;;;;;4.40;3.90;;;;;;;36.88;44.34;98009.53;18239309;32;20403;-55
2023/08/22 14:09:19;;;;;;;5.25;4.10;;;;;;;37.01;42.62;98001.12;18238765;32;20089;-55
2023/08/22 14:19:26;;;;;;;5.90;4.60;;;;;;;37.02;39.74;97997.09;18238357;32;20081;-55
2023/08/22 14:29:31;;;;;;;5.20;4.70;;;;;;;37.35;41.33;97982.97;18236795;32;20042;-55
2023/08/22 14:39:34;;;;;;;5.95;5.30;;;;;;;37.58;38.79;97976.31;18236238;32;20077;-55
2023/08/22 14:49:37;;;;;;;6.18;5.57;;;;;;;37.69;42.68;97955.47;18288883;32;20059;-55
2023/08/22 14:59:40;;;;;;;6.30;5.68;;;;;;;37.04;40.56;97955.16;18235321;32;20077;-55
2023/08/22 15:09:45;;;;;;;6.40;5.03;;;;;;;35.99;41.81;97948.34;18236348;32;20042;-54
2023/08/22 15:19:54;;;;;;;6.05;4.80;;;;;;;35.48;42.88;97944.94;18236104;32;20059;-52
2023/08/22 15:30:13;;;;;;;5.80;4.45;;;;;;;34.86;44.91;97934.75;18234975;32;20418;-55
2023/08/22 15:40:17;;;;;;;4.57;4.10;;;;;;;34.33;47.21;97940.00;18234811;32;20073;-53
2023/08/22 15:50:22;;;;;;;4.75;4.12;;;;;;;33.95;48.00;97929.66;18235235;32;20465;-54
2023/08/22 16:00:25;;;;;;;4.87;4.47;;;;;;;33.61;51.52;97918.47;18234301;32;20547;-54
2023/08/22 16:10:29;;;;;;;4.72;4.22;;;;;;;33.61;52.09;97905.22;18232797;32;20062;-54
2023/08/22 16:20:35;;;;;;;4.68;3.67;;;;;;;33.17;55.59;97915.31;18233328;32;20054;-54
2023/08/22 16:30:39;;;;;;;4.62;3.47;;;;;;;32.64;53.27;97899.78;18232536;32;20047;-54
2023/08/22 16:40:54;;;;;;;4.85;4.22;;;;;;;32.42;54.48;97900.78;18231217;32;20059;-53
2023/08/22 16:50:59;;;;;;;4.72;4.32;;;;;;;32.33;54.58;97906.03;18231646;32;20160;-54
2023/08/22 17:01:02;;;;;;;5.22;4.22;;;;;;;32.67;55.66;97899.78;18229991;32;20092;-53
2023/08/22 17:11:07;;;;;;;4.22;3.80;;;;;;;32.24;56.22;97895.28;18230913;32;20046;-53
2023/08/22 17:21:11;;;;;;;5.97;4.45;;;;;;;31.56;63.59;97902.00;18237132;32;20092;-55
2023/08/22 17:31:15;;;;;;;4.95;4.47;;;;;;;31.06;67.84;97888.97;18239309;32;20046;-55
2023/08/22 17:41:18;;;;;;;4.82;4.32;;;;;;;30.67;74.52;97897.34;18239984;32;20084;-54
2023/08/22 17:51:22;;;;;;;6.30;4.10;;;;;;;30.26;81.22;97895.72;18238771;32;20054;-54
2023/08/22 18:01:25;;;;;;;7.40;4.03;;;;;;;30.20;80.15;97905.66;18239249;32;20446;-52
2023/08/22 18:11:28;;;;;;;5.87;4.50;;;;;;;30.15;80.33;97923.59;18238923;32;20068;-54
2023/08/22 18:32:54;;;;;;;6.78;4.32;;;;;;;29.81;82.07;97929.44;18237227;32;20047;-53
2023/08/22 18:42:58;;;;;;;4.65;4.25;;;;;;;29.43;86.29;97944.78;18237413;32;20415;-54
2023/08/22 18:53:01;;;;;;;5.00;4.22;;;;;;;29.08;90.20;97938.59;18236939;32;20089;-54
2023/08/22 19:03:06;;;;;;;6.12;4.53;;;;;;;28.67;95.00;97950.59;18236647;32;20156;-54
2023/08/22 19:13:10;;;;;;;5.00;4.50;;;;;;;28.14;100.00;97965.53;18234818;32;20092;-52
2023/08/22 19:23:15;;;;;;;5.00;4.43;;;;;;;27.78;100.00;97975.38;18235822;32;20058;-53
2023/08/22 19:33:18;;;;;;;5.20;4.43;;;;;;;27.49;100.00;97989.72;18235164;32;20370;-53
2023/08/22 19:43:24;;;;;;;4.60;4.20;;;;;;;27.27;100.00;97990.53;18234077;32;20145;-51
2023/08/22 19:53:31;;;;;;;4.43;3.45;;;;;;;27.10;100.00;97995.44;18234420;32;20071;-54
2023/08/22 20:03:34;;;;;;;5.05;4.22;;;;;;;27.01;100.00;98005.97;18234648;32;20380;-54
2023/08/22 20:13:38;;;;;;;4.85;3.25;;;;;;;26.78;100.00;98023.47;18233510;32;20054;-55
2023/08/22 20:23:40;;;;;;;4.70;3.20;;;;;;;26.67;100.00;98028.00;18233035;32;20050;-54
2023/08/22 20:33:43;;;;;;;4.40;3.20;;;;;;;26.59;100.00;98027.03;18231202;32;20089;-53
2023/08/22 20:43:47;;;;;;;3.87;3.03;;;;;;;26.34;100.00;98021.84;18231153;32;20062;-53
2023/08/22 20:53:50;;;;;;;4.75;3.12;;;;;;;26.06;100.00;98021.25;18238379;32;20081;-53
2023/08/22 21:03:56;;;;;;;4.55;3.10;;;;;;;25.73;100.00;98039.94;18250596;32;20066;-53
2023/08/22 21:14:02;;;;;;;5.25;2.78;;;;;;;25.37;100.00;98034.37;18251335;32;20073;-54
2023/08/22 21:24:05;;;;;;;3.10;2.70;;;;;;;25.06;100.00;98040.72;18249949;32;20092;-54
2023/08/22 21:34:09;;;;;;;4.72;3.00;;;;;;;24.78;100.00;98035.28;18250523;32;20054;-53
2023/08/22 21:44:13;;;;;;;3.92;2.67;;;;;;;24.52;100.00;98045.62;18249101;32;20090;-53
2023/08/22 21:54:16;;;;;;;4.75;3.20;;;;;;;24.34;100.00;98027.78;18250210;32;20164;-53
2023/08/22 22:04:20;;;;;;;4.20;2.70;;;;;;;24.18;100.00;98039.56;18246219;32;20464;-53
2023/08/22 22:14:23;;;;;;;4.43;3.08;;;;;;;23.97;100.00;98039.78;18238924;32;20062;-53
2023/08/22 22:24:26;;;;;;;4.25;2.78;;;;;;;23.82;100.00;98037.72;18237231;32;20055;-53
2023/08/22 22:34:28;;;;;;;5.15;2.95;;;;;;;23.63;100.00;98036.38;18237651;32;20063;-54
2023/08/22 22:44:31;;;;;;;5.32;2.78;;;;;;;23.44;100.00;98036.16;18237676;32;20059;-53
2023/08/22 22:54:34;;;;;;;3.53;3.00;;;;;;;23.32;100.00;98036.97;18235719;32;20062;-53
2023/08/22 23:04:37;;;;;;;5.90;2.70;;;;;;;23.20;100.00;98029.53;18236489;32;20110;-53
2023/08/22 23:14:39;;;;;;;3.58;2.85;;;;;;;23.05;100.00;98027.41;18235005;32;20059;-53
2023/08/22 23:24:42;;;;;;;4.72;3.15;;;;;;;22.92;100.00;98035.66;18235651;32;20058;-54
2023/08/22 23:34:45;;;;;;;4.10;2.92;;;;;;;22.78;100.00;98040.72;18235469;32;20066;-53
2023/08/22 23:44:49;;;;;;;4.57;2.75;;;;;;;22.68;100.00;98034.47;18234911;32;20055;-52
2023/08/22 23:54:52;;;;;;;4.35;2.83;;;;;;;22.53;100.00;98040.66;18234636;32;20051;-52
